Time;durP1;ratioP1;P1;durP2;ratioP2;P2;SDS_P1;SDS_P2;PMS_P1;PMS_P2;Temp;Humidity;BMP_temperature;BMP_pressure;BME280_temperature;BME280_humidity;BME280_pressure;Samples;Min_cycle;Max_cycle;Signal;HPM_P1;HPM_P2
2021/12/12 00:00:13;;;;;;;46.97;27.10;;;;;;;;;;5031332;28;20451;-73
2021/12/12 00:02:55;;;;;;;45.70;28.80;;;;;;;;;;5030978;28;20440;-70
2021/12/12 00:05:22;;;;;;;51.03;31.63;;;;;;;;;;5032588;28;21016;-72
2021/12/12 00:07:48;;;;;;;50.23;29.13;;;;;;;;;;5031547;28;20427;-72
2021/12/12 00:10:16;;;;;;;45.20;29.03;;;;;;;;;;5031029;28;20433;-73
2021/12/12 00:12:43;;;;;;;48.20;29.63;;;;;;;;;;5036310;28;20783;-72
2021/12/12 00:15:09;;;;;;;58.47;31.30;;;;;;;;;;5035388;28;20536;-72
2021/12/12 00:17:35;;;;;;;49.33;31.40;;;;;;;;;;5032704;28;20418;-71
2021/12/12 00:20:00;;;;;;;58.30;30.70;;;;;;;;;;5031807;28;20425;-73
2021/12/12 00:22:27;;;;;;;51.57;30.90;;;;;;;;;;5032468;28;20187;-73
2021/12/12 00:24:56;;;;;;;53.67;30.30;;;;;;;;;;5034247;28;20210;-73
2021/12/12 00:27:21;;;;;;;57.37;34.73;;;;;;;;;;5034644;28;20443;-73
2021/12/12 00:29:47;;;;;;;60.53;33.97;;;;;;;;;;5034231;28;20444;-73
2021/12/12 00:32:15;;;;;;;59.83;32.50;;;;;;;;;;5032922;28;20175;-72
2021/12/12 00:34:42;;;;;;;55.70;32.97;;;;;;;;;;5033203;28;20235;-73
2021/12/12 00:37:08;;;;;;;62.57;33.10;;;;;;;;;;5029680;28;20426;-72
2021/12/12 00:39:34;;;;;;;64.20;38.07;;;;;;;;;;5031050;28;20439;-73
2021/12/12 00:42:11;;;;;;;62.33;34.67;;;;;;;;;;5032930;28;20487;-73
2021/12/12 00:44:38;;;;;;;65.73;37.17;;;;;;;;;;5034079;28;20475;-70
2021/12/12 00:47:05;;;;;;;59.90;34.30;;;;;;;;;;5035324;28;20971;-72
2021/12/12 00:49:31;;;;;;;67.57;38.17;;;;;;;;;;5032942;28;20980;-72
2021/12/12 00:51:56;;;;;;;70.13;38.53;;;;;;;;;;5034280;28;20432;-73
2021/12/12 00:54:23;;;;;;;62.43;38.67;;;;;;;;;;5036163;28;20492;-73
2021/12/12 00:56:49;;;;;;;63.67;38.03;;;;;;;;;;5033148;28;20168;-73
2021/12/12 00:59:14;;;;;;;61.90;37.17;;;;;;;;;;5038442;28;20944;-72
2021/12/12 01:01:44;;;;;;;57.20;37.30;;;;;;;;;;5033514;28;20179;-71
2021/12/12 01:04:16;;;;;;;66.87;37.57;;;;;;;;;;5034273;28;20204;-74
2021/12/12 01:06:43;;;;;;;63.07;38.53;;;;;;;;;;5031612;28;20434;-73
2021/12/12 01:09:10;;;;;;;65.10;38.63;;;;;;;;;;5030610;28;20509;-74
2021/12/12 01:11:38;;;;;;;59.13;38.00;;;;;;;;;;5030958;28;20440;-72
2021/12/12 01:14:06;;;;;;;62.73;39.63;;;;;;;;;;5035230;28;20471;-71
2021/12/12 01:16:41;;;;;;;63.37;39.00;;;;;;;;;;5033886;28;20806;-72
2021/12/12 01:19:08;;;;;;;62.33;37.67;;;;;;;;;;5033911;28;20505;-72
2021/12/12 01:21:36;;;;;;;60.77;37.23;;;;;;;;;;5031189;28;20427;-72
2021/12/12 01:24:07;;;;;;;56.93;37.73;;;;;;;;;;5030370;28;20500;-74
2021/12/12 01:26:33;;;;;;;65.07;38.80;;;;;;;;;;5029542;28;20434;-72
2021/12/12 01:28:59;;;;;;;66.57;38.50;;;;;;;;;;5037323;28;20442;-70
2021/12/12 01:31:28;;;;;;;65.50;38.70;;;;;;;;;;5028722;28;20236;-72
2021/12/12 01:34:08;;;;;;;60.60;38.00;;;;;;;;;;5031436;28;20484;-73
2021/12/12 01:39:35;;;;;;;62.97;40.50;;;;;;;;;;5012666;28;20649;-72
2021/12/12 01:42:13;;;;;;;62.10;38.30;;;;;;;;;;5029603;28;20426;-71
2021/12/12 01:44:50;;;;;;;59.37;38.23;;;;;;;;;;5032852;28;21107;-73
2021/12/12 01:47:20;;;;;;;58.30;36.90;;;;;;;;;;5035967;28;20427;-74
2021/12/12 01:49:47;;;;;;;56.10;37.30;;;;;;;;;;5034863;28;20518;-71
2021/12/12 01:52:14;;;;;;;65.00;38.30;;;;;;;;;;5031580;28;21214;-71
2021/12/12 01:54:44;;;;;;;66.70;37.00;;;;;;;;;;5031440;28;20493;-73
2021/12/12 01:57:11;;;;;;;62.97;36.77;;;;;;;;;;5031992;28;20434;-71
2021/12/12 01:59:36;;;;;;;61.60;36.47;;;;;;;;;;5034315;28;20453;-71
2021/12/12 02:02:10;;;;;;;59.63;37.80;;;;;;;;;;5028526;28;20423;-74
2021/12/12 02:04:38;;;;;;;61.43;35.40;;;;;;;;;;5028040;28;20465;-75
2021/12/12 02:07:05;;;;;;;58.43;36.60;;;;;;;;;;5031356;28;20442;-73
2021/12/12 02:09:31;;;;;;;52.30;35.27;;;;;;;;;;5033169;28;20429;-72
2021/12/12 02:11:57;;;;;;;48.90;32.03;;;;;;;;;;5033483;28;20798;-73
2021/12/12 02:14:23;;;;;;;51.47;34.63;;;;;;;;;;5028996;28;20227;-73
2021/12/12 02:16:51;;;;;;;47.50;33.40;;;;;;;;;;5032301;28;20431;-72
2021/12/12 02:19:18;;;;;;;53.83;32.07;;;;;;;;;;5035940;28;20429;-72
2021/12/12 02:22:16;;;;;;;49.33;33.17;;;;;;;;;;5031956;28;20954;-72
2021/12/12 02:35:07;;;;;;;52.10;33.00;;;;;;;;;;5030086;28;20456;-73
2021/12/12 02:35:36;;;;;;;47.23;30.37;;;;;;;;;;5030757;28;20265;-71
2021/12/12 02:38:03;;;;;;;51.53;29.53;;;;;;;;;;5026533;28;20430;-71
2021/12/12 02:40:40;;;;;;;48.07;29.00;;;;;;;;;;5033138;28;20803;-73
2021/12/12 02:43:07;;;;;;;46.80;29.10;;;;;;;;;;5037019;28;20526;-74
2021/12/12 02:45:35;;;;;;;49.10;29.90;;;;;;;;;;5032585;28;20442;-71
2021/12/12 02:48:05;;;;;;;46.83;29.10;;;;;;;;;;5040267;28;20933;-73
2021/12/12 02:50:32;;;;;;;50.30;30.17;;;;;;;;;;5040095;28;20892;-72
2021/12/12 02:53:02;;;;;;;44.80;29.30;;;;;;;;;;5035955;28;20492;-72
2021/12/12 02:55:29;;;;;;;45.67;28.70;;;;;;;;;;5041434;28;20434;-71
2021/12/12 02:57:56;;;;;;;48.17;28.67;;;;;;;;;;5041497;28;20431;-72
2021/12/12 03:00:23;;;;;;;50.37;30.07;;;;;;;;;;5032321;28;20430;-74
2021/12/12 03:02:56;;;;;;;44.23;30.00;;;;;;;;;;5036929;28;20549;-74
2021/12/12 03:05:21;;;;;;;42.83;28.43;;;;;;;;;;5034572;28;20475;-71
2021/12/12 03:07:47;;;;;;;42.57;27.47;;;;;;;;;;5041097;28;20450;-71
2021/12/12 03:10:14;;;;;;;44.90;29.07;;;;;;;;;;5043932;28;20229;-72
2021/12/12 03:12:39;;;;;;;45.83;27.80;;;;;;;;;;5035190;28;20183;-73
2021/12/12 03:15:05;;;;;;;42.27;27.07;;;;;;;;;;5036944;28;20446;-73
2021/12/12 03:17:30;;;;;;;37.53;25.03;;;;;;;;;;5039282;28;20191;-73
2021/12/12 03:19:58;;;;;;;39.77;25.23;;;;;;;;;;5039999;28;20179;-73
2021/12/12 03:22:24;;;;;;;39.53;25.10;;;;;;;;;;5040280;28;20275;-72
2021/12/12 03:24:50;;;;;;;41.03;24.47;;;;;;;;;;5053418;28;20465;-73
2021/12/12 03:27:15;;;;;;;36.37;24.13;;;;;;;;;;5040462;28;20434;-71
2021/12/12 03:29:41;;;;;;;35.20;22.30;;;;;;;;;;5040914;28;20188;-72
2021/12/12 03:32:08;;;;;;;32.97;22.90;;;;;;;;;;5039261;28;20588;-71
2021/12/12 03:34:35;;;;;;;29.57;22.30;;;;;;;;;;5037332;28;20481;-71
2021/12/12 03:37:03;;;;;;;36.30;23.93;;;;;;;;;;5034728;28;20441;-71
2021/12/12 03:39:29;;;;;;;34.70;23.50;;;;;;;;;;5041804;28;20430;-72
2021/12/12 03:41:56;;;;;;;30.23;21.60;;;;;;;;;;5036214;28;20433;-74
2021/12/12 03:44:23;;;;;;;31.33;21.70;;;;;;;;;;5038975;28;20494;-71
2021/12/12 03:46:51;;;;;;;33.60;20.93;;;;;;;;;;5038257;28;20909;-72
2021/12/12 03:49:16;;;;;;;34.70;20.47;;;;;;;;;;5037328;28;20512;-71
2021/12/12 03:51:42;;;;;;;31.87;20.30;;;;;;;;;;5035545;28;20890;-73
2021/12/12 03:54:08;;;;;;;31.37;21.57;;;;;;;;;;5037701;28;20243;-74
2021/12/12 03:56:33;;;;;;;32.23;20.40;;;;;;;;;;5038144;28;20456;-72
2021/12/12 03:58:58;;;;;;;31.50;19.97;;;;;;;;;;5033588;28;20326;-72
2021/12/12 04:01:26;;;;;;;33.40;22.40;;;;;;;;;;5033150;28;20172;-72
2021/12/12 04:03:53;;;;;;;30.93;20.90;;;;;;;;;;5035936;28;20226;-73
2021/12/12 04:06:20;;;;;;;27.40;20.03;;;;;;;;;;5034385;28;20434;-72
2021/12/12 04:08:47;;;;;;;30.43;18.50;;;;;;;;;;5034894;28;20438;-72
2021/12/12 04:11:18;;;;;;;29.27;19.30;;;;;;;;;;5030838;28;20438;-71
2021/12/12 04:13:45;;;;;;;31.50;18.13;;;;;;;;;;5032848;28;21081;-71
2021/12/12 04:16:10;;;;;;;30.93;19.83;;;;;;;;;;5032244;28;20470;-71
2021/12/12 04:18:36;;;;;;;39.00;19.37;;;;;;;;;;5036974;28;20480;-70
2021/12/12 04:21:02;;;;;;;32.30;19.93;;;;;;;;;;5033986;28;20746;-72
2021/12/12 04:23:27;;;;;;;27.60;18.00;;;;;;;;;;5034729;28;20279;-71
2021/12/12 04:25:53;;;;;;;25.50;17.90;;;;;;;;;;5032827;28;21013;-74
2021/12/12 04:28:19;;;;;;;31.60;17.83;;;;;;;;;;5032770;28;20190;-71
2021/12/12 04:30:44;;;;;;;25.10;18.20;;;;;;;;;;5034591;28;20184;-72
2021/12/12 04:33:10;;;;;;;29.83;19.40;;;;;;;;;;5033753;28;20227;-72
2021/12/12 04:35:36;;;;;;;26.03;18.27;;;;;;;;;;5033485;28;20184;-72
2021/12/12 04:38:02;;;;;;;29.63;17.97;;;;;;;;;;5030778;28;20446;-72
2021/12/12 04:40:29;;;;;;;28.03;18.30;;;;;;;;;;5030688;28;20380;-73
2021/12/12 04:42:55;;;;;;;27.03;17.23;;;;;;;;;;5035777;28;20430;-71
2021/12/12 04:45:40;;;;;;;22.60;16.50;;;;;;;;;;5033260;28;20465;-72
2021/12/12 04:51:02;;;;;;;25.77;19.23;;;;;;;;;;5034069;28;20814;-72
2021/12/12 04:53:30;;;;;;;28.33;15.90;;;;;;;;;;5034876;28;20584;-71
2021/12/12 04:56:02;;;;;;;30.13;16.73;;;;;;;;;;5031478;28;20853;-72
2021/12/12 04:58:41;;;;;;;21.53;16.97;;;;;;;;;;5040082;28;20877;-71
2021/12/12 05:01:16;;;;;;;22.63;15.73;;;;;;;;;;5030445;28;20439;-70
2021/12/12 05:03:47;;;;;;;27.27;16.53;;;;;;;;;;5031127;28;20465;-75
2021/12/12 05:06:19;;;;;;;24.40;16.57;;;;;;;;;;5033920;28;20962;-73
2021/12/12 05:08:55;;;;;;;24.80;15.10;;;;;;;;;;5023642;28;20476;-71
2021/12/12 05:11:24;;;;;;;26.90;15.90;;;;;;;;;;5032923;28;20441;-72
2021/12/12 05:13:53;;;;;;;18.33;13.73;;;;;;;;;;5034285;28;20466;-72
2021/12/12 05:16:24;;;;;;;20.90;14.73;;;;;;;;;;5030939;28;20462;-70
2021/12/12 05:18:52;;;;;;;20.07;14.77;;;;;;;;;;5036190;28;20433;-73
2021/12/12 05:21:22;;;;;;;19.03;14.37;;;;;;;;;;5035430;28;20494;-69
2021/12/12 05:23:49;;;;;;;22.13;14.10;;;;;;;;;;5035492;28;20476;-74
2021/12/12 05:26:25;;;;;;;16.73;13.53;;;;;;;;;;5036082;28;20430;-72
2021/12/12 05:28:58;;;;;;;18.37;13.10;;;;;;;;;;5034698;28;20484;-70
2021/12/12 05:31:23;;;;;;;18.03;12.40;;;;;;;;;;5036365;28;20586;-71
2021/12/12 05:33:50;;;;;;;14.83;12.67;;;;;;;;;;5036231;28;20548;-73
2021/12/12 05:36:15;;;;;;;18.27;12.37;;;;;;;;;;5032484;28;20187;-69
2021/12/12 05:38:41;;;;;;;17.17;11.90;;;;;;;;;;5038760;28;20434;-70
2021/12/12 05:41:06;;;;;;;17.13;12.00;;;;;;;;;;5036804;28;20263;-71
2021/12/12 05:43:32;;;;;;;13.67;12.27;;;;;;;;;;5035768;28;20792;-70
2021/12/12 05:45:58;;;;;;;15.03;12.43;;;;;;;;;;5034667;28;20233;-70
2021/12/12 05:48:23;;;;;;;17.37;12.73;;;;;;;;;;5037621;28;20442;-72
2021/12/12 05:50:50;;;;;;;19.63;11.80;;;;;;;;;;5036283;28;20188;-69
2021/12/12 05:53:16;;;;;;;20.93;12.60;;;;;;;;;;5033108;28;20261;-70
2021/12/12 05:55:42;;;;;;;16.03;11.77;;;;;;;;;;5035343;28;20433;-70
2021/12/12 05:58:09;;;;;;;17.70;11.80;;;;;;;;;;5032128;28;20265;-72
2021/12/12 06:00:37;;;;;;;16.73;11.73;;;;;;;;;;5033181;28;20453;-73
2021/12/12 06:03:06;;;;;;;16.03;12.33;;;;;;;;;;5034950;28;20438;-74
2021/12/12 06:05:31;;;;;;;14.23;10.80;;;;;;;;;;5032883;28;20442;-71
2021/12/12 06:07:57;;;;;;;15.80;10.60;;;;;;;;;;5033134;28;20441;-72
2021/12/12 06:10:23;;;;;;;13.10;11.13;;;;;;;;;;5032257;28;20211;-71
2021/12/12 06:12:49;;;;;;;17.40;11.20;;;;;;;;;;5034257;28;21030;-73
2021/12/12 06:15:16;;;;;;;14.03;10.10;;;;;;;;;;5036831;28;20472;-70
2021/12/12 06:17:42;;;;;;;10.70;9.60;;;;;;;;;;5039104;28;20766;-70
2021/12/12 06:20:08;;;;;;;11.47;9.90;;;;;;;;;;5049666;28;20465;-69
2021/12/12 06:22:34;;;;;;;14.17;9.60;;;;;;;;;;5029361;28;20442;-70
2021/12/12 06:25:00;;;;;;;12.90;10.53;;;;;;;;;;5030696;28;20550;-70
2021/12/12 06:27:26;;;;;;;9.77;8.80;;;;;;;;;;5030717;28;20442;-71
2021/12/12 06:29:52;;;;;;;8.83;7.87;;;;;;;;;;5033759;28;20180;-71
2021/12/12 06:32:18;;;;;;;9.83;8.83;;;;;;;;;;5048442;28;20291;-70
2021/12/12 06:34:44;;;;;;;9.23;8.23;;;;;;;;;;5029359;28;20998;-71
2021/12/12 06:37:10;;;;;;;10.00;8.90;;;;;;;;;;5033277;28;20188;-71
2021/12/12 06:39:36;;;;;;;8.97;7.90;;;;;;;;;;5031824;28;20423;-72
2021/12/12 06:42:02;;;;;;;11.57;7.93;;;;;;;;;;5033233;28;20434;-73
2021/12/12 06:44:27;;;;;;;10.30;7.27;;;;;;;;;;5031029;28;20446;-75
2021/12/12 06:46:53;;;;;;;9.70;7.80;;;;;;;;;;5034140;28;20443;-71
2021/12/12 06:49:19;;;;;;;11.40;7.90;;;;;;;;;;5039774;28;20220;-72
2021/12/12 06:51:52;;;;;;;8.20;7.40;;;;;;;;;;5027238;28;20995;-74
2021/12/12 06:54:19;;;;;;;9.80;8.20;;;;;;;;;;5027075;28;20209;-71
2021/12/12 06:56:48;;;;;;;8.47;7.53;;;;;;;;;;5024075;28;20437;-72
2021/12/12 06:59:14;;;;;;;7.40;6.80;;;;;;;;;;5026011;28;20493;-71
2021/12/12 07:01:40;;;;;;;10.17;7.33;;;;;;;;;;5029892;28;20450;-70
2021/12/12 07:04:07;;;;;;;9.00;8.10;;;;;;;;;;5028141;28;20307;-71
2021/12/12 07:06:32;;;;;;;8.23;7.53;;;;;;;;;;5030540;28;20180;-71
2021/12/12 07:09:03;;;;;;;7.83;7.13;;;;;;;;;;5030048;28;20503;-74
2021/12/12 07:11:28;;;;;;;11.17;7.77;;;;;;;;;;5030570;28;20429;-71
2021/12/12 07:13:54;;;;;;;8.60;7.63;;;;;;;;;;5024408;28;21019;-73
2021/12/12 07:16:20;;;;;;;8.07;7.00;;;;;;;;;;5030560;28;20187;-70
2021/12/12 07:18:46;;;;;;;8.17;7.10;;;;;;;;;;5032023;28;20172;-73
2021/12/12 07:21:12;;;;;;;9.07;6.90;;;;;;;;;;5032936;28;20439;-70
2021/12/12 07:23:38;;;;;;;10.90;8.30;;;;;;;;;;5043161;28;20215;-74
2021/12/12 07:26:04;;;;;;;8.33;7.47;;;;;;;;;;5029567;28;20433;-72
2021/12/12 07:28:30;;;;;;;8.60;7.80;;;;;;;;;;5028641;28;20477;-69
2021/12/12 07:31:05;;;;;;;8.00;7.30;;;;;;;;;;5031971;28;20522;-73
2021/12/12 07:33:31;;;;;;;7.67;7.00;;;;;;;;;;5029717;28;20258;-70
2021/12/12 07:35:58;;;;;;;9.10;7.27;;;;;;;;;;5031487;28;20434;-73
2021/12/12 07:38:24;;;;;;;7.87;7.17;;;;;;;;;;5034314;28;20438;-73
2021/12/12 07:40:49;;;;;;;7.90;7.20;;;;;;;;;;5041518;28;20842;-73
2021/12/12 07:43:14;;;;;;;7.80;7.03;;;;;;;;;;5033157;28;20200;-74
2021/12/12 07:45:40;;;;;;;8.37;6.73;;;;;;;;;;5051690;28;20196;-74
2021/12/12 07:48:08;;;;;;;7.57;6.90;;;;;;;;;;5035079;28;20196;-74
2021/12/12 07:50:34;;;;;;;6.93;6.33;;;;;;;;;;5033627;28;20200;-72
2021/12/12 07:52:59;;;;;;;8.03;6.13;;;;;;;;;;5032540;28;21034;-74
2021/12/12 07:55:25;;;;;;;7.67;7.00;;;;;;;;;;5038003;28;20531;-72
2021/12/12 07:57:51;;;;;;;7.77;7.07;;;;;;;;;;5033967;28;20191;-75
2021/12/12 08:00:20;;;;;;;7.37;6.77;;;;;;;;;;5038628;28;21305;-74
2021/12/12 08:02:46;;;;;;;8.23;7.47;;;;;;;;;;5040980;28;21215;-71
2021/12/12 08:05:13;;;;;;;7.93;7.13;;;;;;;;;;5035458;28;20708;-73
2021/12/12 08:07:40;;;;;;;8.27;7.57;;;;;;;;;;5032048;28;20854;-75
2021/12/12 08:10:10;;;;;;;7.33;6.63;;;;;;;;;;5031776;28;20445;-72
2021/12/12 08:12:36;;;;;;;8.10;7.30;;;;;;;;;;5026383;28;20442;-73
2021/12/12 08:15:05;;;;;;;8.83;8.03;;;;;;;;;;5032983;28;20473;-74
2021/12/12 08:17:31;;;;;;;8.00;7.30;;;;;;;;;;5033757;28;20434;-72
2021/12/12 08:19:57;;;;;;;8.87;7.80;;;;;;;;;;5031483;28;20449;-73
2021/12/12 08:22:23;;;;;;;11.17;8.40;;;;;;;;;;5028379;28;20555;-74
2021/12/12 08:24:49;;;;;;;9.10;8.27;;;;;;;;;;5026920;28;21056;-73
2021/12/12 08:27:15;;;;;;;9.40;8.60;;;;;;;;;;5035984;28;20903;-72
2021/12/12 08:29:41;;;;;;;9.20;8.30;;;;;;;;;;5038203;28;20188;-72
2021/12/12 08:32:07;;;;;;;8.53;7.73;;;;;;;;;;5030974;28;20450;-73
2021/12/12 08:34:34;;;;;;;7.70;7.00;;;;;;;;;;5033201;28;20681;-72
2021/12/12 08:36:59;;;;;;;8.00;7.30;;;;;;;;;;5032067;28;20452;-74
2021/12/12 08:39:27;;;;;;;7.87;7.17;;;;;;;;;;5025811;28;20262;-72
2021/12/12 08:41:53;;;;;;;8.07;7.27;;;;;;;;;;5026235;28;20263;-73
2021/12/12 08:44:19;;;;;;;7.77;6.90;;;;;;;;;;5028063;28;20516;-74
2021/12/12 08:46:46;;;;;;;8.07;7.27;;;;;;;;;;5032594;28;20180;-72
2021/12/12 08:49:13;;;;;;;7.90;7.20;;;;;;;;;;5032628;28;20435;-74
2021/12/12 08:51:41;;;;;;;8.83;8.10;;;;;;;;;;5032180;28;20434;-73
2021/12/12 08:54:14;;;;;;;8.77;7.97;;;;;;;;;;5031639;28;20559;-72
2021/12/12 08:56:43;;;;;;;9.57;8.63;;;;;;;;;;5034544;28;20505;-71
2021/12/12 08:59:10;;;;;;;7.90;7.20;;;;;;;;;;5034675;28;20516;-71
2021/12/12 09:01:37;;;;;;;8.47;7.53;;;;;;;;;;5038044;28;20462;-73
2021/12/12 09:04:03;;;;;;;8.70;7.90;;;;;;;;;;5037044;28;20463;-71
2021/12/12 09:06:30;;;;;;;8.93;8.10;;;;;;;;;;5038249;28;20442;-74
2021/12/12 09:08:55;;;;;;;7.93;7.23;;;;;;;;;;5048823;28;20279;-72
2021/12/12 09:11:26;;;;;;;8.10;7.50;;;;;;;;;;5035781;28;20454;-74
2021/12/12 09:13:53;;;;;;;8.83;8.03;;;;;;;;;;5032878;28;20207;-71
2021/12/12 09:16:37;;;;;;;9.00;8.10;;;;;;;;;;5031596;28;20790;-74
2021/12/12 09:19:25;;;;;;;13.07;7.90;;;;;;;;;;5037336;28;20435;-75
2021/12/12 09:21:55;;;;;;;9.97;9.07;;;;;;;;;;5034082;28;20437;-72
2021/12/12 09:24:29;;;;;;;9.43;8.37;;;;;;;;;;5030483;28;20450;-71
2021/12/12 09:26:57;;;;;;;9.20;8.30;;;;;;;;;;5022917;28;20429;-73
2021/12/12 09:29:28;;;;;;;10.83;8.83;;;;;;;;;;5032795;28;20526;-70
2021/12/12 09:32:07;;;;;;;9.13;8.23;;;;;;;;;;5031602;28;20445;-79
2021/12/12 09:34:35;;;;;;;9.40;8.40;;;;;;;;;;5029491;28;20489;-70
2021/12/12 09:37:12;;;;;;;9.80;8.90;;;;;;;;;;5032317;28;20927;-72
2021/12/12 09:39:49;;;;;;;10.53;8.10;;;;;;;;;;5026753;28;21449;-74
2021/12/12 09:42:33;;;;;;;9.53;8.63;;;;;;;;;;5026444;28;20532;-71
2021/12/12 09:45:16;;;;;;;9.40;8.57;;;;;;;;;;5023423;28;20453;-72
2021/12/12 09:48:14;;;;;;;11.67;9.80;;;;;;;;;;5033979;28;20427;-75
2021/12/12 09:51:15;;;;;;;10.13;8.83;;;;;;;;;;5045053;28;20445;-74
2021/12/12 09:53:40;;;;;;;9.80;8.60;;;;;;;;;;5034900;28;20469;-72
2021/12/12 09:56:07;;;;;;;11.83;10.43;;;;;;;;;;5034478;28;20830;-72
2021/12/12 09:58:42;;;;;;;11.27;10.17;;;;;;;;;;5030969;28;20286;-71
2021/12/12 10:01:11;;;;;;;12.03;10.83;;;;;;;;;;5031484;28;20439;-74
2021/12/12 10:03:46;;;;;;;9.83;8.83;;;;;;;;;;5029541;28;20500;-74
2021/12/12 10:06:16;;;;;;;11.27;10.17;;;;;;;;;;5046404;28;20947;-73
2021/12/12 10:08:42;;;;;;;12.00;10.70;;;;;;;;;;5029442;28;21029;-71
2021/12/12 10:11:07;;;;;;;11.90;10.60;;;;;;;;;;5035450;28;20545;-71
2021/12/12 10:13:38;;;;;;;9.90;8.97;;;;;;;;;;5028524;28;20470;-73
2021/12/12 10:16:33;;;;;;;10.70;9.60;;;;;;;;;;5033173;28;20188;-72
2021/12/12 10:19:03;;;;;;;11.93;10.60;;;;;;;;;;4985969;28;20444;-72
2021/12/12 10:21:33;;;;;;;12.10;10.90;;;;;;;;;;5028690;28;20448;-72
2021/12/12 10:24:05;;;;;;;12.43;11.13;;;;;;;;;;5035743;28;20508;-72
2021/12/12 10:26:30;;;;;;;12.13;10.93;;;;;;;;;;5040297;28;20433;-72
2021/12/12 10:28:59;;;;;;;13.10;11.37;;;;;;;;;;5038104;28;20820;-73
2021/12/12 10:31:51;;;;;;;11.53;10.33;;;;;;;;;;5052884;28;20191;-72
2021/12/12 10:34:23;;;;;;;12.70;11.10;;;;;;;;;;5032703;28;20478;-72
2021/12/12 10:37:07;;;;;;;13.13;11.83;;;;;;;;;;5034692;28;20438;-72
2021/12/12 10:39:35;;;;;;;11.80;10.63;;;;;;;;;;5030913;28;20469;-74
2021/12/12 10:42:07;;;;;;;12.80;11.47;;;;;;;;;;5036055;28;20426;-74
2021/12/12 10:44:36;;;;;;;12.53;11.23;;;;;;;;;;5031072;28;21104;-72
2021/12/12 10:47:20;;;;;;;12.80;11.53;;;;;;;;;;5032508;28;20500;-73
2021/12/12 10:50:04;;;;;;;13.20;11.63;;;;;;;;;;5053215;28;20438;-72
2021/12/12 10:52:33;;;;;;;12.73;11.37;;;;;;;;;;5033191;28;20424;-72
2021/12/12 10:55:00;;;;;;;14.30;12.80;;;;;;;;;;5027506;28;20471;-72
2021/12/12 10:57:29;;;;;;;11.93;10.30;;;;;;;;;;5030795;28;20426;-73
2021/12/12 11:00:22;;;;;;;11.70;10.50;;;;;;;;;;5035981;28;20443;-76
2021/12/12 11:02:59;;;;;;;16.40;12.87;;;;;;;;;;5031297;28;20537;-72
2021/12/12 11:05:31;;;;;;;16.70;12.83;;;;;;;;;;5033462;28;20894;-72
2021/12/12 11:08:16;;;;;;;14.17;12.60;;;;;;;;;;5038536;28;20426;-74
2021/12/12 11:10:47;;;;;;;15.33;13.67;;;;;;;;;;5034482;28;20472;-74
2021/12/12 11:13:25;;;;;;;15.30;13.23;;;;;;;;;;5041887;28;20430;-76
2021/12/12 11:15:54;;;;;;;17.13;14.60;;;;;;;;;;5040640;28;20429;-72
2021/12/12 11:18:24;;;;;;;17.50;13.60;;;;;;;;;;5035817;28;20438;-73
2021/12/12 11:20:52;;;;;;;15.47;13.67;;;;;;;;;;5041800;28;20431;-74
2021/12/12 11:23:26;;;;;;;15.00;13.40;;;;;;;;;;5042836;28;20484;-74
2021/12/12 11:25:56;;;;;;;18.47;14.33;;;;;;;;;;5043593;28;20437;-74
2021/12/12 11:28:24;;;;;;;16.47;14.00;;;;;;;;;;5042627;28;20438;-73
2021/12/12 11:31:00;;;;;;;20.73;16.70;;;;;;;;;;5042932;28;20463;-73
2021/12/12 11:33:27;;;;;;;20.30;16.43;;;;;;;;;;5042319;28;20481;-71
2021/12/12 11:35:55;;;;;;;20.77;16.33;;;;;;;;;;5045489;28;20434;-73
2021/12/12 11:38:26;;;;;;;21.30;15.90;;;;;;;;;;5045681;28;20928;-73
2021/12/12 11:41:21;;;;;;;19.80;15.63;;;;;;;;;;5043638;28;20430;-73
2021/12/12 11:43:54;;;;;;;20.43;15.77;;;;;;;;;;5037827;28;20994;-75
2021/12/12 11:46:23;;;;;;;21.27;15.97;;;;;;;;;;5040380;28;20433;-72
2021/12/12 11:49:01;;;;;;;19.37;15.83;;;;;;;;;;5035472;28;20503;-73
2021/12/12 11:51:26;;;;;;;20.13;16.10;;;;;;;;;;5025688;28;21935;-74
2021/12/12 11:54:12;;;;;;;23.13;15.73;;;;;;;;;;5027689;28;20921;-74
2021/12/12 11:56:45;;;;;;;20.53;16.67;;;;;;;;;;5030294;28;20195;-73
2021/12/12 11:59:10;;;;;;;22.70;17.47;;;;;;;;;;5035702;28;20422;-73
2021/12/12 12:01:39;;;;;;;19.53;15.63;;;;;;;;;;5022882;28;20442;-75
2021/12/12 12:04:17;;;;;;;22.30;17.10;;;;;;;;;;5030675;28;21019;-72
2021/12/12 12:06:48;;;;;;;19.03;15.93;;;;;;;;;;5029934;28;20864;-74
2021/12/12 12:09:19;;;;;;;18.47;15.20;;;;;;;;;;5030191;28;21140;-71
2021/12/12 12:12:13;;;;;;;19.70;16.60;;;;;;;;;;5035645;28;20934;-74
2021/12/12 12:14:39;;;;;;;20.67;16.60;;;;;;;;;;5025935;28;20478;-74
2021/12/12 12:17:22;;;;;;;21.07;15.20;;;;;;;;;;5032758;28;20434;-73
2021/12/12 12:20:02;;;;;;;18.80;16.10;;;;;;;;;;5032260;28;20263;-72
2021/12/12 12:22:28;;;;;;;21.93;16.17;;;;;;;;;;5033218;28;20425;-72
2021/12/12 12:25:13;;;;;;;17.80;15.17;;;;;;;;;;5034334;28;20462;-72
2021/12/12 12:27:43;;;;;;;17.90;16.00;;;;;;;;;;5030295;28;20206;-73
2021/12/12 12:30:27;;;;;;;20.80;15.60;;;;;;;;;;5031521;28;20471;-75
2021/12/12 12:33:21;;;;;;;17.63;15.80;;;;;;;;;;5030648;28;20433;-73
2021/12/12 12:36:05;;;;;;;16.40;13.40;;;;;;;;;;5033739;28;20450;-73
2021/12/12 12:38:51;;;;;;;16.40;14.70;;;;;;;;;;5028718;28;20446;-73
2021/12/12 12:41:35;;;;;;;17.50;14.30;;;;;;;;;;5031455;28;20438;-72
2021/12/12 12:44:19;;;;;;;16.30;14.07;;;;;;;;;;5030587;28;20457;-77
2021/12/12 12:47:03;;;;;;;15.17;13.57;;;;;;;;;;5027397;28;20934;-76
2021/12/12 12:49:47;;;;;;;15.50;13.87;;;;;;;;;;5031916;28;20545;-74
2021/12/12 12:52:21;;;;;;;14.40;12.83;;;;;;;;;;5027176;28;20450;-74
2021/12/12 12:54:59;;;;;;;14.97;13.23;;;;;;;;;;5030850;28;20491;-74
2021/12/12 12:57:28;;;;;;;13.20;11.80;;;;;;;;;;5029906;28;20798;-73
2021/12/12 12:59:55;;;;;;;14.93;13.07;;;;;;;;;;5031696;28;22022;-73
2021/12/12 13:02:20;;;;;;;13.10;11.80;;;;;;;;;;5034273;28;20426;-74
2021/12/12 13:05:06;;;;;;;14.07;12.57;;;;;;;;;;5035856;28;20470;-72
2021/12/12 13:07:40;;;;;;;13.90;12.30;;;;;;;;;;5031285;28;20164;-72
2021/12/12 13:10:14;;;;;;;13.37;12.00;;;;;;;;;;5025243;28;20441;-73
2021/12/12 13:12:40;;;;;;;12.60;11.30;;;;;;;;;;5028546;28;21018;-73
2021/12/12 13:15:05;;;;;;;13.23;11.83;;;;;;;;;;5026272;28;20458;-71
2021/12/12 13:17:52;;;;;;;12.90;11.60;;;;;;;;;;5019388;28;20182;-72
2021/12/12 13:20:43;;;;;;;14.90;12.90;;;;;;;;;;5021971;28;20176;-75
2021/12/12 13:23:18;;;;;;;14.57;12.90;;;;;;;;;;5030171;28;20819;-73
2021/12/12 13:25:48;;;;;;;17.17;14.20;;;;;;;;;;5033884;28;20965;-72
2021/12/12 13:28:21;;;;;;;15.00;13.40;;;;;;;;;;5029504;28;20453;-73
2021/12/12 13:31:13;;;;;;;15.40;13.73;;;;;;;;;;5027272;28;20426;-80
2021/12/12 13:33:50;;;;;;;16.77;12.93;;;;;;;;;;5044020;28;20970;-73
2021/12/12 13:36:29;;;;;;;16.40;13.73;;;;;;;;;;5024871;28;20495;-74
2021/12/12 13:39:16;;;;;;;14.73;12.50;;;;;;;;;;5030643;28;20433;-75
2021/12/12 13:42:00;;;;;;;13.37;11.97;;;;;;;;;;5032943;28;20469;-74
2021/12/12 13:44:31;;;;;;;13.33;12.00;;;;;;;;;;5029289;28;20468;-74
2021/12/12 13:46:57;;;;;;;13.13;11.73;;;;;;;;;;5036949;28;20430;-75
2021/12/12 13:49:26;;;;;;;13.63;12.20;;;;;;;;;;5031985;28;20441;-74
2021/12/12 13:52:00;;;;;;;14.00;11.57;;;;;;;;;;5044912;28;20278;-74
2021/12/12 13:54:38;;;;;;;11.40;10.30;;;;;;;;;;5034217;28;20458;-74
2021/12/12 13:57:23;;;;;;;11.00;9.90;;;;;;;;;;5029878;28;20423;-73
2021/12/12 13:59:52;;;;;;;10.97;9.87;;;;;;;;;;5035711;28;20993;-72
2021/12/12 14:02:18;;;;;;;10.67;9.67;;;;;;;;;;5030597;28;20437;-72
2021/12/12 14:04:56;;;;;;;9.77;8.87;;;;;;;;;;5028330;28;20475;-72
2021/12/12 14:07:25;;;;;;;10.70;9.40;;;;;;;;;;5031431;28;20517;-73
2021/12/12 14:09:53;;;;;;;10.97;9.77;;;;;;;;;;5035099;28;20438;-72
2021/12/12 14:12:20;;;;;;;10.77;9.67;;;;;;;;;;5030576;28;20438;-72
2021/12/12 14:14:49;;;;;;;9.83;8.83;;;;;;;;;;5029139;28;20465;-71
2021/12/12 14:17:30;;;;;;;9.67;8.67;;;;;;;;;;5023032;28;20450;-74
2021/12/12 14:20:00;;;;;;;10.30;9.03;;;;;;;;;;5033168;28;20962;-72
2021/12/12 14:22:26;;;;;;;10.17;9.17;;;;;;;;;;5036521;28;20431;-72
2021/12/12 14:24:55;;;;;;;10.90;9.33;;;;;;;;;;5019304;28;20468;-72
2021/12/12 14:27:21;;;;;;;8.90;8.00;;;;;;;;;;5028500;28;20420;-72
2021/12/12 14:29:57;;;;;;;10.30;9.10;;;;;;;;;;5027400;28;20505;-73
2021/12/12 14:32:32;;;;;;;10.10;9.10;;;;;;;;;;5024877;28;20460;-72
2021/12/12 14:35:03;;;;;;;12.27;10.70;;;;;;;;;;5029749;28;21017;-70
2021/12/12 14:37:34;;;;;;;9.73;8.83;;;;;;;;;;5032938;28;20487;-71
2021/12/12 14:40:11;;;;;;;9.80;8.80;;;;;;;;;;5031496;28;20426;-75
2021/12/12 14:42:49;;;;;;;9.17;8.27;;;;;;;;;;5028412;28;20664;-73
2021/12/12 14:45:16;;;;;;;9.37;8.50;;;;;;;;;;5037037;28;21037;-73
2021/12/12 14:47:45;;;;;;;14.70;13.30;;;;;;;;;;5039288;28;20519;-72
2021/12/12 14:50:17;;;;;;;10.83;9.67;;;;;;;;;;5037924;28;21030;-72
2021/12/12 14:52:47;;;;;;;7.50;6.80;;;;;;;;;;5027756;28;20432;-71
2021/12/12 14:55:23;;;;;;;8.43;7.60;;;;;;;;;;5029655;28;20474;-72